createdAt,value
2022-09-26T00:02:14.116Z,97858.34
2022-09-26T00:04:43.827Z,97857.16
2022-09-26T00:07:13.587Z,97866.97
2022-09-26T00:09:43.271Z,97857.22
2022-09-26T00:12:15.609Z,97859.56
2022-09-26T00:14:45.337Z,97854.88
2022-09-26T00:17:15.083Z,97854.09
2022-09-26T00:19:44.771Z,97848.66
2022-09-26T00:22:14.501Z,97847.88
2022-09-26T00:24:44.126Z,97852.56
2022-09-26T00:27:16.440Z,97850.63
2022-09-26T00:29:46.115Z,97845.91
2022-09-26T00:32:15.799Z,97853.75
2022-09-26T00:34:45.480Z,97848.25
2022-09-26T00:37:15.414Z,97856.09
2022-09-26T00:39:45.135Z,97852.19
2022-09-26T00:42:18.877Z,97845.13
2022-09-26T00:44:51.326Z,97840.41
2022-09-26T00:47:41.336Z,97844.31
2022-09-26T00:50:18.865Z,97850.59
2022-09-26T00:52:53.946Z,97838.09
2022-09-26T00:55:30.305Z,97838.06
2022-09-26T00:58:07.296Z,97836.50
2022-09-26T01:00:37.585Z,97840.81
2022-09-26T01:03:07.775Z,97840.03
2022-09-26T01:05:39.531Z,97842.00
2022-09-26T01:08:09.979Z,97834.94
2022-09-26T01:10:40.765Z,97825.56
2022-09-26T01:13:13.243Z,97832.59
2022-09-26T01:15:42.925Z,97831.81
2022-09-26T01:18:12.696Z,97831.44
2022-09-26T01:24:02.492Z,97833.38
2022-09-26T01:26:54.902Z,97831.03
2022-09-26T01:30:04.198Z,97831.03
2022-09-26T01:33:00.990Z,97830.25
2022-09-26T01:35:42.683Z,97820.47
2022-09-26T01:38:24.564Z,97828.72
2022-09-26T01:41:07.856Z,97830.28
2022-09-26T01:43:45.984Z,97831.06
2022-09-26T01:46:26.430Z,97833.38
2022-09-26T01:49:05.756Z,97841.22
2022-09-26T01:51:41.435Z,97837.69
2022-09-26T01:54:16.623Z,97838.09
2022-09-26T01:56:49.643Z,97843.53
2022-09-26T01:59:24.407Z,97844.72
2022-09-26T02:01:58.075Z,97843.91
2022-09-26T02:04:34.004Z,97836.91
2022-09-26T02:07:08.854Z,97834.56
2022-09-26T02:09:43.228Z,97834.97
2022-09-26T02:12:17.568Z,97829.91
2022-09-26T02:14:50.760Z,97825.94
2022-09-26T02:17:23.164Z,97834.16
2022-09-26T02:20:02.103Z,97825.94
2022-09-26T02:22:34.709Z,97820.09
2022-09-26T02:25:05.542Z,97824.03
2022-09-26T02:27:35.322Z,97818.53
2022-09-26T02:30:05.102Z,97815.00
2022-09-26T02:32:35.829Z,97809.56
2022-09-26T02:35:27.361Z,97802.09
2022-09-26T02:37:57.336Z,97806.41
2022-09-26T02:40:36.908Z,97806.41
2022-09-26T02:43:26.516Z,97804.44
2022-09-26T02:46:03.938Z,97809.16
2022-09-26T02:48:52.553Z,97814.22
2022-09-26T02:51:37.041Z,97807.59
2022-09-26T02:54:18.908Z,97799.34
2022-09-26T02:57:00.040Z,97791.56
2022-09-26T02:59:36.706Z,97793.50
2022-09-26T03:02:15.946Z,97795.84
2022-09-26T03:04:52.490Z,97795.09
2022-09-26T03:07:32.659Z,97780.59
2022-09-26T03:10:06.566Z,97773.94
2022-09-26T03:12:37.202Z,97775.53
2022-09-26T03:15:09.431Z,97770.44
2022-09-26T03:17:42.765Z,97764.97
2022-09-26T03:20:15.301Z,97756.75
2022-09-26T03:22:48.283Z,97763.75
2022-09-26T03:25:20.574Z,97754.41
2022-09-26T03:27:51.038Z,97755.22
2022-09-26T03:30:22.457Z,97754.44
2022-09-26T03:32:52.275Z,97752.44
2022-09-26T03:35:21.969Z,97750.47
2022-09-26T03:37:54.239Z,97741.06
2022-09-26T03:40:24.006Z,97743.81
2022-09-26T03:42:53.773Z,97745.44
2022-09-26T03:45:23.647Z,97736.84
2022-09-26T03:47:58.860Z,97736.44
2022-09-26T03:50:28.638Z,97737.63
2022-09-26T03:53:00.930Z,97737.19
2022-09-26T03:55:30.876Z,97728.63
2022-09-26T03:58:02.731Z,97723.91
2022-09-26T04:00:32.476Z,97716.88
2022-09-26T04:03:03.269Z,97711.41
2022-09-26T04:05:32.979Z,97711.41
2022-09-26T04:08:05.949Z,97712.94
2022-09-26T04:10:35.599Z,97705.91
2022-09-26T04:13:05.263Z,97717.69
2022-09-26T04:15:35.331Z,97714.91
2022-09-26T04:18:04.993Z,97718.41
2022-09-26T04:20:34.707Z,97704.34
2022-09-26T04:23:06.963Z,97701.59
2022-09-26T04:25:39.951Z,97692.25
2022-09-26T04:28:09.608Z,97686.41
2022-09-26T04:30:40.223Z,97692.66
2022-09-26T04:33:09.857Z,97685.22
2022-09-26T04:35:39.595Z,97694.56
2022-09-26T04:38:12.045Z,97683.66
2022-09-26T04:40:42.960Z,97685.63
2022-09-26T04:43:13.162Z,97670.78
2022-09-26T04:45:44.331Z,97676.22
2022-09-26T04:48:14.095Z,97670.75
2022-09-26T04:50:43.769Z,97667.28
2022-09-26T04:53:16.322Z,97662.19
2022-09-26T04:55:46.929Z,97664.13
2022-09-26T04:58:17.457Z,97657.47
2022-09-26T05:00:49.918Z,97661.38
2022-09-26T05:03:20.289Z,97662.94
2022-09-26T05:05:50.601Z,97661.38
2022-09-26T05:08:23.691Z,97651.22
2022-09-26T05:10:56.109Z,97654.72
2022-09-26T05:13:25.988Z,97651.19
2022-09-26T05:15:55.989Z,97648.88
2022-09-26T05:18:26.381Z,97653.56
2022-09-26T05:20:57.080Z,97657.88
2022-09-26T05:23:51.031Z,97657.84
2022-09-26T05:26:24.854Z,97661.34
2022-09-26T05:28:57.216Z,97660.59
2022-09-26T05:31:29.198Z,97659.78
2022-09-26T05:33:59.401Z,97656.66
2022-09-26T05:36:30.324Z,97658.22
2022-09-26T05:39:02.933Z,97659.72
2022-09-26T05:41:31.399Z,97662.09
2022-09-26T05:44:01.115Z,97652.72
2022-09-26T05:46:32.157Z,97657.38
2022-09-26T05:49:01.842Z,97657.38
2022-09-26T05:51:33.649Z,97652.69
2022-09-26T05:54:06.115Z,97658.13
2022-09-26T05:56:38.015Z,97658.88
2022-09-26T05:59:08.308Z,97644.88
2022-09-26T06:01:38.576Z,97643.31
2022-09-26T06:04:08.283Z,97644.13
2022-09-26T06:06:38.034Z,97646.88
2022-09-26T06:09:10.460Z,97640.66
2022-09-26T06:11:40.170Z,97637.13
2022-09-26T06:14:10.504Z,97633.25
2022-09-26T06:16:40.350Z,97637.13
2022-09-26T06:19:10.177Z,97634.03
2022-09-26T06:21:40.373Z,97626.22
2022-09-26T06:24:13.290Z,97628.94
2022-09-26T06:26:42.957Z,97629.72
2022-09-26T06:29:13.844Z,97625.41
2022-09-26T06:31:43.680Z,97626.22
2022-09-26T06:34:14.067Z,97623.88
2022-09-26T06:36:44.288Z,97624.25
2022-09-26T06:39:16.789Z,97626.22
2022-09-26T06:41:46.617Z,97624.66
2022-09-26T06:44:17.300Z,97620.34
2022-09-26T06:46:47.013Z,97616.44
2022-09-26T06:49:16.803Z,97621.41
2022-09-26T06:51:46.620Z,97620.47
2022-09-26T06:54:18.931Z,97611.72
2022-09-26T06:56:48.625Z,97610.47
2022-09-26T06:59:19.127Z,97610.16
2022-09-26T07:01:49.129Z,97607.13
2022-09-26T07:04:18.881Z,97598.69
2022-09-26T07:06:48.610Z,97612.47
2022-09-26T07:09:21.018Z,97599.31
2022-09-26T07:12:13.441Z,97600.13
2022-09-26T07:14:40.486Z,97604.84
2022-09-26T07:17:10.330Z,97604.91
2022-09-26T07:19:40.059Z,97601.78
2022-09-26T07:22:09.862Z,97609.63
2022-09-26T07:24:45.235Z,97616.25
2022-09-26T07:27:15.453Z,97602.50
2022-09-26T07:29:47.397Z,97607.75
2022-09-26T07:32:17.229Z,97599.97
2022-09-26T07:34:48.219Z,97606.53
2022-09-26T07:37:18.327Z,97602.19
2022-09-26T07:39:54.120Z,97593.75
2022-09-26T07:42:25.230Z,97588.03
2022-09-26T07:45:24.626Z,97599.72
2022-09-26T07:47:57.008Z,97589.50
2022-09-26T07:50:26.774Z,97590.69
2022-09-26T07:52:57.731Z,97589.50
2022-09-26T07:55:31.315Z,97585.69
2022-09-26T07:58:00.979Z,97591.34
2022-09-26T08:00:31.683Z,97583.53
2022-09-26T08:03:04.980Z,97584.66
2022-09-26T08:05:35.626Z,97584.25
2022-09-26T08:08:05.346Z,97582.78
2022-09-26T08:10:37.694Z,97570.53
2022-09-26T08:13:07.444Z,97577.50
2022-09-26T08:15:37.055Z,97568.44
2022-09-26T08:18:07.460Z,97565.47
2022-09-26T08:20:37.301Z,97568.97
2022-09-26T08:23:06.969Z,97575.81
2022-09-26T08:25:39.285Z,97574.88
2022-09-26T08:28:12.348Z,97564.59
2022-09-26T08:30:42.489Z,97559.28
2022-09-26T08:33:14.140Z,97553.78
2022-09-26T08:35:43.878Z,97553.59
2022-09-26T08:38:14.555Z,97554.94
2022-09-26T08:40:55.985Z,97556.41
2022-09-26T08:43:39.635Z,97558.47
2022-09-26T08:46:41.014Z,97547.47
2022-09-26T08:49:27.030Z,97544.41
2022-09-26T08:51:58.776Z,97542.22
2022-09-26T08:54:37.505Z,97542.13
2022-09-26T08:57:17.120Z,97538.94
2022-09-26T08:59:49.959Z,97538.00
2022-09-26T09:02:26.632Z,97537.47
2022-09-26T09:05:04.160Z,97541.34
2022-09-26T09:07:35.008Z,97538.59
2022-09-26T09:10:07.811Z,97535.38
2022-09-26T09:12:53.807Z,97535.19
2022-09-26T09:15:35.131Z,97534.22
2022-09-26T09:18:18.776Z,97534.22
2022-09-26T09:20:59.892Z,97528.47
2022-09-26T09:23:43.298Z,97527.25
2022-09-26T09:29:38.014Z,97531.03
2022-09-26T09:32:09.036Z,97526.47
2022-09-26T09:34:44.798Z,97515.72
2022-09-26T09:37:18.526Z,97518.72
2022-09-26T09:39:51.329Z,97510.47
2022-09-26T09:42:29.464Z,97516.44
2022-09-26T09:45:07.325Z,97515.06
2022-09-26T09:47:41.344Z,97510.16
2022-09-26T09:50:17.348Z,97504.00
2022-09-26T09:52:59.632Z,97504.84
2022-09-26T09:55:40.627Z,97499.63
2022-09-26T09:58:30.291Z,97490.03
2022-09-26T10:01:09.997Z,97478.31
2022-09-26T10:03:44.580Z,97480.75
2022-09-26T10:06:44.468Z,97476.91
2022-09-26T10:09:36.038Z,97480.81
2022-09-26T10:12:11.082Z,97477.97
2022-09-26T10:14:48.815Z,97473.91
2022-09-26T10:17:22.928Z,97467.69
2022-09-26T10:19:53.003Z,97470.69
2022-09-26T10:22:29.427Z,97459.88
2022-09-26T10:25:05.539Z,97456.78
2022-09-26T10:27:38.912Z,97453.47
2022-09-26T10:30:26.010Z,97450.13
2022-09-26T10:33:01.848Z,97445.91
2022-09-26T10:35:43.311Z,97446.59
2022-09-26T10:38:23.469Z,97438.88
2022-09-26T10:40:55.002Z,97453.34
2022-09-26T10:43:28.962Z,97436.28
2022-09-26T10:46:05.530Z,97438.69
2022-09-26T10:48:47.664Z,97442.66
2022-09-26T10:51:25.065Z,97427.22
2022-09-26T10:53:58.441Z,97428.81
2022-09-26T10:56:32.182Z,97429.13
2022-09-26T10:59:10.088Z,97415.81
2022-09-26T11:01:44.760Z,97421.53
2022-09-26T11:04:40.943Z,97413.91
2022-09-26T11:07:11.192Z,97411.25
2022-09-26T11:09:41.367Z,97412.03
2022-09-26T11:12:25.586Z,97402.19
2022-09-26T11:15:02.245Z,97396.44
2022-09-26T11:17:47.313Z,97388.72
2022-09-26T11:20:30.309Z,97400.00
2022-09-26T11:23:09.653Z,97395.91
2022-09-26T11:25:57.791Z,97394.03
2022-09-26T11:28:34.473Z,97391.78
2022-09-26T11:31:09.181Z,97367.44
2022-09-26T11:33:45.276Z,97358.75
2022-09-26T11:36:39.837Z,97360.19
2022-09-26T11:39:20.877Z,97356.56
2022-09-26T11:42:05.408Z,97346.75
2022-09-26T11:44:51.599Z,97360.19
2022-09-26T11:48:08.710Z,97363.94
2022-09-26T11:50:48.091Z,97348.59
2022-09-26T11:53:55.677Z,97349.31
2022-09-26T11:56:50.091Z,97330.50
2022-09-26T11:59:43.276Z,97331.66
2022-09-26T12:02:56.187Z,97325.66
2022-09-26T12:05:34.940Z,97315.75
2022-09-26T12:08:25.939Z,97318.72
2022-09-26T12:11:10.655Z,97319.66
2022-09-26T12:13:52.603Z,97311.50
2022-09-26T12:16:29.448Z,97310.19
2022-09-26T12:19:10.476Z,97325.09
2022-09-26T12:22:09.978Z,97334.13
2022-09-26T12:24:48.558Z,97351.41
2022-09-26T12:27:28.392Z,97355.56
2022-09-26T12:30:05.473Z,97339.06
2022-09-26T12:32:49.773Z,97320.44
2022-09-26T12:35:29.827Z,97298.31
2022-09-26T12:38:20.545Z,97282.03
2022-09-26T12:41:02.562Z,97273.56
2022-09-26T12:43:54.610Z,97279.53
2022-09-26T12:46:44.917Z,97278.81
2022-09-26T12:49:35.308Z,97267.38
2022-09-26T12:52:13.021Z,97259.59
2022-09-26T12:55:04.178Z,97253.75
2022-09-26T12:57:44.284Z,97255.94
2022-09-26T13:00:21.905Z,97264.25
2022-09-26T13:03:19.107Z,97241.75
2022-09-26T13:06:19.171Z,97240.97
2022-09-26T13:08:57.479Z,97240.19
2022-09-26T13:11:34.055Z,97238.59
2022-09-26T13:14:34.089Z,97243.34
2022-09-26T13:17:13.584Z,97241.22
2022-09-26T13:19:48.404Z,97244.28
2022-09-26T13:22:31.792Z,97247.69
2022-09-26T13:25:08.881Z,97252.97
2022-09-26T13:27:44.241Z,97239.63
2022-09-26T13:30:21.238Z,97246.91
2022-09-26T13:33:02.278Z,97253.50
2022-09-26T13:35:35.999Z,97244.31
2022-09-26T13:38:18.894Z,97240.72
2022-09-26T13:40:56.507Z,97230.16
2022-09-26T13:43:48.739Z,97239.28
2022-09-26T13:46:31.102Z,97223.94
2022-09-26T13:49:25.283Z,97220.34
2022-09-26T13:52:10.924Z,97205.28
2022-09-26T13:54:58.072Z,97210.63
2022-09-26T13:57:48.192Z,97214.47
2022-09-26T14:00:49.382Z,97215.06
2022-09-26T14:03:44.463Z,97216.91
2022-09-26T14:06:37.646Z,97218.59
2022-09-26T14:09:24.225Z,97198.97
2022-09-26T14:12:17.678Z,97205.59
2022-09-26T14:14:55.911Z,97196.66
2022-09-26T14:17:58.170Z,97179.66
2022-09-26T14:20:31.433Z,97185.19
2022-09-26T14:23:01.521Z,97179.56
2022-09-26T14:25:58.616Z,97193.34
2022-09-26T14:28:35.555Z,97189.19
2022-09-26T14:31:41.415Z,97183.38
2022-09-26T14:34:24.595Z,97175.19
2022-09-26T14:36:56.659Z,97162.75
2022-09-26T14:39:35.600Z,97175.56
2022-09-26T14:42:22.008Z,97174.16
2022-09-26T14:44:58.522Z,97181.41
2022-09-26T14:47:33.297Z,97166.47
2022-09-26T14:50:06.725Z,97160.25
2022-09-26T14:52:40.017Z,97165.06
2022-09-26T14:55:10.816Z,97159.28
2022-09-26T14:57:40.988Z,97158.63
2022-09-26T15:00:40.685Z,97155.22
2022-09-26T15:03:17.714Z,97164.34
2022-09-26T15:05:49.414Z,97166.94
2022-09-26T15:08:28.383Z,97154.19
2022-09-26T15:11:00.866Z,97155.38
2022-09-26T15:13:37.346Z,97156.00
2022-09-26T15:16:21.316Z,97150.91
2022-09-26T15:18:58.312Z,97159.72
2022-09-26T15:21:35.779Z,97145.88
2022-09-26T15:24:08.088Z,97157.41
2022-09-26T15:26:39.993Z,97145.53
2022-09-26T15:29:10.611Z,97138.56
2022-09-26T15:31:42.566Z,97136.44
2022-09-26T15:34:19.952Z,97134.28
2022-09-26T15:36:54.903Z,97137.97
2022-09-26T15:39:43.817Z,97132.47
2022-09-26T15:42:35.634Z,97133.00
2022-09-26T15:45:23.198Z,97131.94
2022-09-26T15:47:54.616Z,97122.66
2022-09-26T15:50:30.317Z,97111.22
2022-09-26T15:53:05.540Z,97115.13
2022-09-26T15:55:40.693Z,97109.75
2022-09-26T15:58:13.814Z,97111.38
2022-09-26T16:00:48.121Z,97105.19
2022-09-26T16:03:34.402Z,97103.47
2022-09-26T16:06:10.350Z,97101.31
2022-09-26T16:08:44.520Z,97107.16
2022-09-26T16:11:14.242Z,97104.91
2022-09-26T16:13:48.322Z,97105.28
2022-09-26T16:16:21.597Z,97106.28
2022-09-26T16:18:57.308Z,97103.72
2022-09-26T16:21:33.993Z,97082.25
2022-09-26T16:24:25.310Z,97093.25
2022-09-26T16:26:55.090Z,97098.75
2022-09-26T16:29:34.833Z,97095.88
2022-09-26T16:32:06.226Z,97094.16
2022-09-26T16:34:36.089Z,97093.50
2022-09-26T16:37:19.781Z,97087.53
2022-09-26T16:39:59.553Z,97091.41
2022-09-26T16:42:33.004Z,97087.03
2022-09-26T16:45:07.515Z,97077.84
2022-09-26T16:47:44.618Z,97081.13
2022-09-26T16:50:29.014Z,97070.03
2022-09-26T16:53:02.561Z,97072.50
2022-09-26T16:55:37.664Z,97068.09
2022-09-26T16:58:08.399Z,97068.88
2022-09-26T17:00:52.637Z,97063.53
2022-09-26T17:03:24.776Z,97064.13
2022-09-26T17:05:56.456Z,97054.91
2022-09-26T17:08:29.698Z,97058.63
2022-09-26T17:11:03.540Z,97053.63
2022-09-26T17:13:36.570Z,97050.38
2022-09-26T17:16:07.036Z,97056.91
2022-09-26T17:18:36.752Z,97047.81
2022-09-26T17:21:06.781Z,97040.94
2022-09-26T17:23:41.849Z,97033.28
2022-09-26T17:26:19.900Z,97039.63
2022-09-26T17:28:49.952Z,97030.97
2022-09-26T17:31:22.003Z,97036.78
2022-09-26T17:33:54.445Z,97032.66
2022-09-26T17:36:26.360Z,97030.13
2022-09-26T17:39:01.139Z,97028.72
2022-09-26T17:41:32.831Z,97022.00
2022-09-26T17:44:02.613Z,97027.78
2022-09-26T17:46:32.616Z,97021.03
2022-09-26T17:49:05.452Z,97012.31
2022-09-26T17:51:36.452Z,97014.38
2022-09-26T17:54:10.344Z,96997.03
2022-09-26T17:56:40.107Z,96996.19
2022-09-26T17:59:22.777Z,96989.22
2022-09-26T18:01:58.514Z,96990.84
2022-09-26T18:04:29.302Z,96985.44
2022-09-26T18:07:04.556Z,96988.41
2022-09-26T18:09:39.357Z,96983.47
2022-09-26T18:12:12.463Z,96980.84
2022-09-26T18:14:42.360Z,96974.31
2022-09-26T18:17:18.123Z,96967.06
2022-09-26T18:19:48.766Z,96964.59
2022-09-26T18:22:20.920Z,96956.31
2022-09-26T18:24:56.756Z,96957.00
2022-09-26T18:27:26.506Z,96950.47
2022-09-26T18:29:56.258Z,96947.63
2022-09-26T18:32:29.791Z,96936.81
2022-09-26T18:34:59.635Z,96939.22
2022-09-26T18:37:29.377Z,96939.28
2022-09-26T18:40:04.274Z,96935.75
2022-09-26T18:42:35.441Z,96928.47
2022-09-26T18:45:08.725Z,96927.69
2022-09-26T18:47:42.872Z,96924.19
2022-09-26T18:50:24.559Z,96927.25
2022-09-26T18:52:54.291Z,96921.09
2022-09-26T18:55:42.711Z,96921.78
2022-09-26T18:58:28.013Z,96917.63
2022-09-26T19:01:00.583Z,96910.38
2022-09-26T19:03:32.874Z,96907.38
2022-09-26T19:06:06.329Z,96909.16
2022-09-26T19:08:38.613Z,96912.63
2022-09-26T19:11:17.484Z,96915.16
2022-09-26T19:13:49.102Z,96908.03
2022-09-26T19:16:19.461Z,96920.22
2022-09-26T19:18:49.583Z,96909.22
2022-09-26T19:21:29.744Z,96905.38
2022-09-26T19:24:01.577Z,96898.97
2022-09-26T19:26:38.753Z,96903.28
2022-09-26T19:29:12.850Z,96903.19
2022-09-26T19:31:42.752Z,96904.22
2022-09-26T19:34:16.797Z,96896.50
2022-09-26T19:36:46.738Z,96900.34
2022-09-26T19:39:17.764Z,96890.84
2022-09-26T19:41:50.236Z,96897.19
2022-09-26T19:44:19.911Z,96893.09
2022-09-26T19:46:50.245Z,96892.97
2022-09-26T19:49:22.747Z,96889.38
2022-09-26T19:51:52.487Z,96891.09
2022-09-26T19:54:22.389Z,96888.53
2022-09-26T19:56:54.663Z,96894.22
2022-09-26T19:59:27.495Z,96881.16
2022-09-26T20:01:57.689Z,96889.22
2022-09-26T20:04:27.541Z,96888.19
2022-09-26T20:06:58.573Z,96890.59
2022-09-26T20:09:28.340Z,96886.06
2022-09-26T20:12:00.684Z,96873.44
2022-09-26T20:14:30.389Z,96872.34
2022-09-26T20:17:02.494Z,96863.22
2022-09-26T20:19:37.934Z,96865.13
2022-09-26T20:22:13.547Z,96864.19
2022-09-26T20:24:44.049Z,96861.94
2022-09-26T20:27:21.299Z,96856.19
2022-09-26T20:30:04.693Z,96854.31
2022-09-26T20:32:34.651Z,96849.09
2022-09-26T20:35:04.525Z,96845.72
2022-09-26T20:37:36.592Z,96839.66
2022-09-26T20:40:13.974Z,96844.44
2022-09-26T20:42:49.482Z,96829.53
2022-09-26T20:45:21.250Z,96837.75
2022-09-26T20:47:51.029Z,96835.09
2022-09-26T20:50:22.435Z,96841.28
2022-09-26T20:52:52.616Z,96839.66
2022-09-26T20:55:22.788Z,96839.22
2022-09-26T20:57:55.080Z,96843.22
2022-09-26T21:00:24.799Z,96841.16
2022-09-26T21:02:56.614Z,96844.31
2022-09-26T21:05:28.480Z,96832.94
2022-09-26T21:07:59.189Z,96823.59
2022-09-26T21:10:31.101Z,96822.19
2022-09-26T21:13:04.288Z,96809.66
2022-09-26T21:15:36.268Z,96813.47
2022-09-26T21:18:06.048Z,96814.06
2022-09-26T21:20:37.360Z,96801.97
2022-09-26T21:23:07.198Z,96802.41
2022-09-26T21:25:36.925Z,96795.56
2022-09-26T21:28:26.408Z,96802.94
2022-09-26T21:30:58.381Z,96802.81
2022-09-26T21:33:28.650Z,96806.41
2022-09-26T21:35:58.461Z,96800.22
2022-09-26T21:38:28.917Z,96797.34
2022-09-26T21:41:03.819Z,96794.44
2022-09-26T21:43:42.533Z,96793.06
2022-09-26T21:46:12.237Z,96800.00
2022-09-26T21:48:42.583Z,96796.03
2022-09-26T21:51:13.991Z,96801.38
2022-09-26T21:53:47.585Z,96794.28
2022-09-26T21:56:19.940Z,96799.16
2022-09-26T21:58:53.341Z,96794.94
2022-09-26T22:01:23.598Z,96786.00
2022-09-26T22:03:53.466Z,96789.09
2022-09-26T22:06:23.271Z,96780.00
2022-09-26T22:08:53.203Z,96772.25
2022-09-26T22:11:22.936Z,96778.06
2022-09-26T22:13:56.503Z,96766.09
2022-09-26T22:16:26.378Z,96757.88
2022-09-26T22:18:56.210Z,96760.00
2022-09-26T22:21:26.036Z,96753.81
2022-09-26T22:23:56.106Z,96750.88
2022-09-26T22:26:26.209Z,96748.72
2022-09-26T22:28:58.521Z,96747.03
2022-09-26T22:31:28.396Z,96752.41
2022-09-26T22:33:59.605Z,96746.16
2022-09-26T22:36:30.016Z,96742.28
2022-09-26T22:38:59.752Z,96735.81
2022-09-26T22:41:29.494Z,96725.38
2022-09-26T22:44:01.982Z,96725.59
2022-09-26T22:46:31.774Z,96723.53
2022-09-26T22:49:01.668Z,96720.91
2022-09-26T22:51:31.398Z,96713.44
2022-09-26T22:54:01.147Z,96710.69
2022-09-26T22:56:30.864Z,96712.75
2022-09-26T22:59:04.706Z,96705.28
2022-09-26T23:01:34.467Z,96705.72
2022-09-26T23:04:04.855Z,96699.91
2022-09-26T23:06:34.766Z,96696.06
2022-09-26T23:09:04.547Z,96699.31
2022-09-26T23:11:34.244Z,96699.63
2022-09-26T23:14:06.535Z,96687.25
2022-09-26T23:16:36.436Z,96687.00
2022-09-26T23:19:06.485Z,96670.59
2022-09-26T23:21:36.189Z,96671.66
2022-09-26T23:24:05.936Z,96655.13
2022-09-26T23:26:35.778Z,96653.78
2022-09-26T23:29:08.129Z,96640.56
2022-09-26T23:31:38.033Z,96634.19
2022-09-26T23:34:08.170Z,96627.09
2022-09-26T23:36:37.880Z,96622.19
2022-09-26T23:39:07.667Z,96625.63
2022-09-26T23:41:37.412Z,96617.13
2022-09-26T23:44:09.952Z,96624.09
2022-09-26T23:46:39.809Z,96614.94
2022-09-26T23:49:09.650Z,96618.06
2022-09-26T23:51:39.475Z,96604.59
2022-09-26T23:54:09.636Z,96600.09
2022-09-26T23:56:39.585Z,96591.66
2022-09-26T23:59:12.041Z,96587.47
